Time;durP1;ratioP1;P1;durP2;ratioP2;P2;SDS_P1;SDS_P2;PMS_P1;PMS_P2;Temp;Humidity;BMP_temperature;BMP_pressure;BME280_temperature;BME280_humidity;BME280_pressure;Samples;Min_cycle;Max_cycle;Signal;HPM_P1;HPM_P2
2022/01/13 00:02:19;;;;;;;46.53;15.20;;;;;;;;;;4883534;29;20047;-78
2022/01/13 00:04:47;;;;;;;39.88;14.27;;;;;;;;;;4860720;29;20048;-78
2022/01/13 00:07:13;;;;;;;43.58;15.43;;;;;;;;;;4869585;29;20079;-77
2022/01/13 00:09:39;;;;;;;40.80;15.05;;;;;;;;;;4884019;29;20144;-78
2022/01/13 00:12:09;;;;;;;38.00;15.18;;;;;;;;;;4869414;29;20475;-78
2022/01/13 00:17:30;;;;;;;41.78;14.93;;;;;;;;;;4883484;29;20116;-78
2022/01/13 00:20:08;;;;;;;34.03;13.65;;;;;;;;;;4867284;29;20457;-78
2022/01/13 00:23:37;;;;;;;29.35;12.65;;;;;;;;;;4885107;29;20040;-78
2022/01/13 00:25:34;;;;;;;41.30;12.45;;;;;;;;;;4884309;29;20049;-78
2022/01/13 00:28:05;;;;;;;30.75;12.07;;;;;;;;;;4871879;29;20055;-78
2022/01/13 00:30:32;;;;;;;30.73;12.68;;;;;;;;;;4879319;29;20063;-78
2022/01/13 00:32:58;;;;;;;29.40;13.35;;;;;;;;;;4884360;29;20044;-78
2022/01/13 00:35:24;;;;;;;34.72;12.90;;;;;;;;;;4881765;29;20147;-78
2022/01/13 00:37:50;;;;;;;38.58;14.07;;;;;;;;;;4868487;29;20032;-79
2022/01/13 00:40:16;;;;;;;33.53;13.82;;;;;;;;;;4881209;29;20049;-78
2022/01/13 00:42:42;;;;;;;43.97;14.55;;;;;;;;;;4882509;29;20041;-78
2022/01/13 00:45:13;;;;;;;46.10;15.15;;;;;;;;;;4885227;29;20099;-78
2022/01/13 00:47:40;;;;;;;45.58;15.13;;;;;;;;;;4868668;29;20456;-79
2022/01/13 00:50:07;;;;;;;46.90;14.50;;;;;;;;;;4867595;29;20044;-79
2022/01/13 00:52:33;;;;;;;48.45;14.70;;;;;;;;;;4867600;29;20059;-78
2022/01/13 00:55:03;;;;;;;45.40;15.48;;;;;;;;;;4869281;29;20076;-78
2022/01/13 00:57:31;;;;;;;34.15;13.57;;;;;;;;;;4881714;29;20083;-77
2022/01/13 00:59:58;;;;;;;45.42;15.98;;;;;;;;;;4884466;29;20419;-78
2022/01/13 01:02:24;;;;;;;51.75;16.80;;;;;;;;;;4884286;29;20040;-78
2022/01/13 01:04:50;;;;;;;44.35;15.65;;;;;;;;;;4867525;29;20138;-77
2022/01/13 01:07:16;;;;;;;37.33;15.27;;;;;;;;;;4883481;29;20048;-79
2022/01/13 01:09:48;;;;;;;40.53;15.35;;;;;;;;;;4865944;29;20051;-77
2022/01/13 01:12:15;;;;;;;51.85;17.02;;;;;;;;;;4864652;29;20040;-78
2022/01/13 01:14:46;;;;;;;47.72;17.25;;;;;;;;;;4882724;29;20115;-78
2022/01/13 01:17:17;;;;;;;40.13;15.38;;;;;;;;;;4884074;29;20040;-78
2022/01/13 01:19:47;;;;;;;46.33;16.58;;;;;;;;;;4882318;29;20054;-78
2022/01/13 01:22:29;;;;;;;48.63;17.83;;;;;;;;;;4882343;29;20083;-78
2022/01/13 01:25:31;;;;;;;38.00;16.73;;;;;;;;;;4883188;29;20048;-78
2022/01/13 01:27:53;;;;;;;40.70;17.10;;;;;;;;;;4882697;29;20128;-78
2022/01/13 01:30:30;;;;;;;49.42;16.58;;;;;;;;;;4897005;29;20050;-78
2022/01/13 01:32:56;;;;;;;56.50;19.58;;;;;;;;;;4882880;29;20048;-78
2022/01/13 01:35:26;;;;;;;56.30;19.75;;;;;;;;;;4881986;29;20048;-77
2022/01/13 01:37:52;;;;;;;43.70;16.25;;;;;;;;;;4882474;29;20048;-78
2022/01/13 01:40:19;;;;;;;53.95;17.73;;;;;;;;;;4867166;29;20104;-78
2022/01/13 01:42:46;;;;;;;46.72;17.25;;;;;;;;;;4867441;29;20044;-78
2022/01/13 01:45:13;;;;;;;52.17;18.60;;;;;;;;;;4865753;29;20060;-78
2022/01/13 01:47:41;;;;;;;58.38;18.15;;;;;;;;;;4883069;29;20059;-78
2022/01/13 01:50:17;;;;;;;45.92;18.33;;;;;;;;;;4881918;29;20044;-79
2022/01/13 01:52:44;;;;;;;62.80;19.33;;;;;;;;;;4866261;29;20369;-79
2022/01/13 01:55:10;;;;;;;56.25;19.60;;;;;;;;;;4867387;29;20032;-80
2022/01/13 01:57:36;;;;;;;53.33;18.95;;;;;;;;;;4862285;29;20052;-78
2022/01/13 02:00:05;;;;;;;48.25;18.08;;;;;;;;;;4866369;29;20039;-78
2022/01/13 02:02:31;;;;;;;52.85;18.70;;;;;;;;;;4866301;29;20040;-78
2022/01/13 02:04:58;;;;;;;44.60;17.75;;;;;;;;;;4882675;29;20048;-79
2022/01/13 02:07:24;;;;;;;42.83;18.83;;;;;;;;;;4882348;29;20040;-79
2022/01/13 02:09:52;;;;;;;60.63;20.23;;;;;;;;;;4867651;29;20123;-78
2022/01/13 02:12:31;;;;;;;58.72;19.92;;;;;;;;;;4882136;29;20119;-78
2022/01/13 02:15:48;;;;;;;61.33;19.17;;;;;;;;;;4881611;29;20107;-79
2022/01/13 02:17:44;;;;;;;;;;;;;;;;;;4877982;29;20074;-79
2022/01/13 02:20:12;;;;;;;59.00;18.45;;;;;;;;;;4852122;29;19936;-78
2022/01/13 02:22:38;;;;;;;56.15;18.88;;;;;;;;;;4852124;29;20111;-78
2022/01/13 02:25:04;;;;;;;55.05;18.55;;;;;;;;;;4882013;29;20036;-78
2022/01/13 02:27:31;;;;;;;56.47;19.83;;;;;;;;;;4880656;29;20036;-78
2022/01/13 02:30:00;;;;;;;71.47;19.60;;;;;;;;;;4897648;29;20040;-79
2022/01/13 02:32:26;;;;;;;72.47;19.45;;;;;;;;;;4890080;29;20051;-78
2022/01/13 02:34:52;;;;;;;62.30;19.50;;;;;;;;;;4901498;29;20227;-79
2022/01/13 02:37:18;;;;;;;82.88;20.77;;;;;;;;;;4889894;29;20089;-79
2022/01/13 02:39:44;;;;;;;66.15;17.55;;;;;;;;;;4910549;29;20126;-79
2022/01/13 02:42:14;;;;;;;69.68;17.95;;;;;;;;;;4910210;29;20089;-78
2022/01/13 02:44:53;;;;;;;75.90;17.77;;;;;;;;;;4894012;29;20044;-78
2022/01/13 02:47:35;;;;;;;57.25;15.52;;;;;;;;;;4894482;29;20346;-79
2022/01/13 02:50:04;;;;;;;58.13;16.15;;;;;;;;;;4882269;29;20135;-79
2022/01/13 02:52:31;;;;;;;77.38;19.80;;;;;;;;;;4898730;29;20044;-79
2022/01/13 02:54:57;;;;;;;73.97;19.77;;;;;;;;;;4882609;29;20032;-79
2022/01/13 02:57:23;;;;;;;66.35;17.92;;;;;;;;;;4882316;29;20421;-78
2022/01/13 02:59:49;;;;;;;63.05;17.48;;;;;;;;;;4882473;29;20043;-80
2022/01/13 03:02:16;;;;;;;74.63;17.90;;;;;;;;;;4866659;29;20055;-80
2022/01/13 03:04:47;;;;;;;74.05;17.95;;;;;;;;;;4866617;29;20074;-78
2022/01/13 03:07:14;;;;;;;88.15;19.42;;;;;;;;;;4882386;29;20055;-79
2022/01/13 03:09:41;;;;;;;71.10;17.58;;;;;;;;;;4865544;29;20457;-79
2022/01/13 03:12:08;;;;;;;53.53;16.58;;;;;;;;;;4867153;29;20045;-79
2022/01/13 03:14:34;;;;;;;61.80;16.48;;;;;;;;;;4881603;29;20176;-79
2022/01/13 03:17:03;;;;;;;85.13;19.38;;;;;;;;;;4867184;29;20037;-79
2022/01/13 03:19:29;;;;;;;74.00;17.65;;;;;;;;;;4882298;29;20040;-78
2022/01/13 03:21:58;;;;;;;58.38;16.48;;;;;;;;;;4882444;29;20357;-78
2022/01/13 03:24:26;;;;;;;60.30;16.90;;;;;;;;;;4867324;29;20100;-79
2022/01/13 03:26:53;;;;;;;78.88;19.02;;;;;;;;;;4882299;29;20048;-78
2022/01/13 03:29:24;;;;;;;90.57;19.52;;;;;;;;;;4866743;29;20041;-79
2022/01/13 03:31:50;;;;;;;55.35;17.83;;;;;;;;;;4882891;29;20373;-78
2022/01/13 03:34:17;;;;;;;64.05;18.45;;;;;;;;;;4881787;29;20047;-79
2022/01/13 03:36:44;;;;;;;48.17;16.73;;;;;;;;;;4882078;29;20040;-78
2022/01/13 03:39:13;;;;;;;58.33;18.48;;;;;;;;;;4881973;29;20036;-79
2022/01/13 03:41:40;;;;;;;70.85;18.52;;;;;;;;;;4882153;29;20040;-78
2022/01/13 03:44:08;;;;;;;50.40;17.75;;;;;;;;;;4866226;29;20041;-78
2022/01/13 03:46:35;;;;;;;67.35;17.98;;;;;;;;;;4867413;29;20049;-78
2022/01/13 03:49:02;;;;;;;83.07;21.33;;;;;;;;;;4881615;29;20127;-78
2022/01/13 03:51:51;;;;;;;48.83;16.95;;;;;;;;;;4866525;29;20079;-79
2022/01/13 03:54:23;;;;;;;62.38;19.50;;;;;;;;;;4882660;29;20124;-79
2022/01/13 03:57:08;;;;;;;53.35;18.80;;;;;;;;;;4866882;29;20043;-78
2022/01/13 03:59:54;;;;;;;57.10;19.65;;;;;;;;;;4866200;29;20048;-78
2022/01/13 04:02:22;;;;;;;59.90;20.07;;;;;;;;;;4866685;29;20366;-78
2022/01/13 04:04:49;;;;;;;57.30;19.13;;;;;;;;;;4866010;29;20192;-79
2022/01/13 04:07:18;;;;;;;58.45;20.02;;;;;;;;;;4881690;29;20036;-79
2022/01/13 04:09:44;;;;;;;43.22;18.75;;;;;;;;;;4866278;29;20043;-79
2022/01/13 04:12:12;;;;;;;52.25;18.75;;;;;;;;;;4881931;29;20031;-78
2022/01/13 04:14:46;;;;;;;52.85;19.45;;;;;;;;;;4864779;29;20044;-78
2022/01/13 04:17:14;;;;;;;45.75;18.33;;;;;;;;;;4866545;29;20111;-78
2022/01/13 04:19:40;;;;;;;58.30;19.13;;;;;;;;;;4882396;29;20036;-78
2022/01/13 04:22:07;;;;;;;51.33;19.35;;;;;;;;;;4869531;29;20344;-78
2022/01/13 04:24:33;;;;;;;54.35;20.17;;;;;;;;;;4869412;29;20115;-77
2022/01/13 04:27:00;;;;;;;55.97;19.48;;;;;;;;;;4869401;29;20457;-78
2022/01/13 04:29:39;;;;;;;45.75;18.77;;;;;;;;;;4869679;29;20044;-78
2022/01/13 04:32:06;;;;;;;64.45;18.50;;;;;;;;;;4869244;29;20044;-78
2022/01/13 04:34:32;;;;;;;61.63;18.75;;;;;;;;;;4884536;29;20434;-79
2022/01/13 04:36:59;;;;;;;64.25;19.35;;;;;;;;;;4884883;29;20040;-78
2022/01/13 04:39:26;;;;;;;65.57;18.90;;;;;;;;;;4884312;29;20459;-78
2022/01/13 04:41:53;;;;;;;78.47;20.70;;;;;;;;;;4884402;29;20047;-78
2022/01/13 04:44:21;;;;;;;71.38;19.33;;;;;;;;;;4884464;29;20044;-78
2022/01/13 04:46:48;;;;;;;65.78;18.00;;;;;;;;;;4869362;29;20040;-78
2022/01/13 04:49:16;;;;;;;78.15;18.98;;;;;;;;;;4884664;29;20441;-78
2022/01/13 04:51:43;;;;;;;106.97;23.05;;;;;;;;;;4884646;29;20453;-78
2022/01/13 04:54:09;;;;;;;57.33;19.20;;;;;;;;;;4884639;29;20040;-78
2022/01/13 04:56:45;;;;;;;86.78;20.27;;;;;;;;;;4884058;29;20047;-78
2022/01/13 04:59:11;;;;;;;93.72;20.27;;;;;;;;;;4868887;29;20046;-78
2022/01/13 05:01:38;;;;;;;58.53;18.50;;;;;;;;;;4869256;29;20040;-78
2022/01/13 05:04:05;;;;;;;95.93;20.88;;;;;;;;;;4883274;29;20139;-78
2022/01/13 05:06:34;;;;;;;75.65;19.98;;;;;;;;;;4869155;29;20048;-78
2022/01/13 05:09:00;;;;;;;71.13;20.60;;;;;;;;;;4868712;29;20112;-78
2022/01/13 05:11:26;;;;;;;120.20;25.05;;;;;;;;;;4883873;29;20070;-78
2022/01/13 05:13:53;;;;;;;131.25;24.40;;;;;;;;;;4868480;29;20044;-77
2022/01/13 05:21:21;;;;;;;69.10;20.38;;;;;;;;;;4884533;29;20096;-78
2022/01/13 05:23:49;;;;;;;;;;;;;;;;;;4884096;29;20461;-78
2022/01/13 05:26:15;;;;;;;84.75;20.92;;;;;;;;;;4868873;29;19915;-79
2022/01/13 05:28:41;;;;;;;84.75;22.02;;;;;;;;;;4867823;29;20056;-78
2022/01/13 05:31:08;;;;;;;76.97;22.95;;;;;;;;;;4883379;29;20036;-78
2022/01/13 05:33:34;;;;;;;68.35;23.25;;;;;;;;;;4867884;29;20449;-78
2022/01/13 05:36:01;;;;;;;79.35;24.42;;;;;;;;;;4883180;29;20472;-78
2022/01/13 05:38:28;;;;;;;72.43;23.63;;;;;;;;;;4883911;29;20100;-78
2022/01/13 05:40:54;;;;;;;58.92;24.13;;;;;;;;;;4883588;29;20051;-78
2022/01/13 05:43:20;;;;;;;53.00;22.20;;;;;;;;;;4883603;29;20453;-78
2022/01/13 05:45:47;;;;;;;63.20;22.08;;;;;;;;;;4867647;29;20127;-78
2022/01/13 05:48:13;;;;;;;60.35;23.65;;;;;;;;;;4883074;29;20326;-78
2022/01/13 05:50:39;;;;;;;62.38;24.35;;;;;;;;;;4868057;29;20036;-79
2022/01/13 05:53:06;;;;;;;60.75;23.38;;;;;;;;;;4867590;29;20119;-78
2022/01/13 05:55:33;;;;;;;54.72;22.40;;;;;;;;;;4868119;29;20044;-78
2022/01/13 05:57:59;;;;;;;58.25;22.90;;;;;;;;;;4867031;29;20032;-78
2022/01/13 06:00:25;;;;;;;63.58;24.30;;;;;;;;;;4867700;29;20098;-78
2022/01/13 06:02:52;;;;;;;57.92;24.35;;;;;;;;;;4882727;29;20064;-79
2022/01/13 06:05:18;;;;;;;62.58;24.38;;;;;;;;;;4883354;29;20044;-78
2022/01/13 06:07:44;;;;;;;51.85;23.23;;;;;;;;;;4883056;29;20041;-78
2022/01/13 06:10:13;;;;;;;66.57;25.13;;;;;;;;;;4866920;29;20052;-78
2022/01/13 06:12:39;;;;;;;61.47;25.60;;;;;;;;;;4868146;29;20124;-78
2022/01/13 06:15:09;;;;;;;62.40;24.08;;;;;;;;;;4867031;29;20425;-81
2022/01/13 06:17:36;;;;;;;56.90;23.02;;;;;;;;;;4883048;29;20044;-78
2022/01/13 06:20:05;;;;;;;53.65;23.98;;;;;;;;;;4868158;29;20417;-79
2022/01/13 06:22:31;;;;;;;61.47;25.13;;;;;;;;;;4882898;29;20036;-78
2022/01/13 06:24:59;;;;;;;61.10;24.80;;;;;;;;;;4882993;29;20055;-78
2022/01/13 06:27:26;;;;;;;60.92;25.67;;;;;;;;;;4867198;29;20360;-79
2022/01/13 06:29:52;;;;;;;59.65;24.35;;;;;;;;;;4867512;29;20044;-79
2022/01/13 06:32:19;;;;;;;62.63;25.52;;;;;;;;;;4882990;29;20048;-78
2022/01/13 06:34:46;;;;;;;61.38;25.20;;;;;;;;;;4882747;29;20048;-78
2022/01/13 06:37:12;;;;;;;59.95;23.58;;;;;;;;;;4880868;29;20028;-79
2022/01/13 06:39:38;;;;;;;57.45;23.52;;;;;;;;;;4867127;29;20330;-78
2022/01/13 06:42:05;;;;;;;58.88;24.25;;;;;;;;;;4866989;29;20041;-78
2022/01/13 06:44:31;;;;;;;51.92;23.25;;;;;;;;;;4866620;29;20048;-78
2022/01/13 06:46:57;;;;;;;57.42;22.38;;;;;;;;;;4867835;29;20092;-78
2022/01/13 06:49:24;;;;;;;53.60;23.60;;;;;;;;;;4843039;29;20405;-78
2022/01/13 06:51:50;;;;;;;57.72;23.30;;;;;;;;;;4864140;29;20041;-79
2022/01/13 06:54:16;;;;;;;57.00;23.90;;;;;;;;;;4869459;29;20058;-78
2022/01/13 06:56:42;;;;;;;55.47;22.60;;;;;;;;;;4867081;29;20086;-78
2022/01/13 06:59:11;;;;;;;47.13;21.90;;;;;;;;;;4866781;29;20089;-78
2022/01/13 07:01:41;;;;;;;52.28;22.42;;;;;;;;;;4866876;29;20127;-80
2022/01/13 07:04:24;;;;;;;;;;;;;;;;;;;;;
2022/01/13 07:07:19;;;;;;;47.97;21.25;;;;;;;;;;4878520;29;20472;-79
2022/01/13 07:10:14;;;;;;;49.53;22.27;;;;;;;;;;4863563;29;20071;-78
2022/01/13 07:13:09;;;;;;;58.00;22.00;;;;;;;;;;4867624;29;20072;-80
2022/01/13 07:15:35;;;;;;;51.40;22.58;;;;;;;;;;4845314;29;20068;-79
2022/01/13 07:18:13;;;;;;;52.33;21.17;;;;;;;;;;4843165;29;20046;-79
2022/01/13 07:20:42;;;;;;;59.70;22.90;;;;;;;;;;4878177;29;20044;-78
2022/01/13 07:23:14;;;;;;;46.65;20.85;;;;;;;;;;4878899;29;20041;-78
2022/01/13 07:25:50;;;;;;;48.50;20.58;;;;;;;;;;4864352;29;20048;-78
2022/01/13 07:28:19;;;;;;;49.85;20.83;;;;;;;;;;4863799;29;20105;-78
2022/01/13 07:30:46;;;;;;;51.15;21.35;;;;;;;;;;4862753;29;20063;-79
2022/01/13 07:33:15;;;;;;;51.30;21.10;;;;;;;;;;4862683;29;20115;-78
2022/01/13 07:36:02;;;;;;;50.15;21.90;;;;;;;;;;4878683;29;20033;-79
2022/01/13 07:38:51;;;;;;;48.42;21.48;;;;;;;;;;4862585;29;20052;-78
2022/01/13 07:41:59;;;;;;;54.20;21.45;;;;;;;;;;4829422;29;20105;-78
2022/01/13 07:44:42;;;;;;;51.28;21.38;;;;;;;;;;4843537;29;20041;-79
2022/01/13 07:47:29;;;;;;;46.67;21.58;;;;;;;;;;4860517;29;20064;-79
2022/01/13 07:49:58;;;;;;;51.85;21.33;;;;;;;;;;4863911;29;20044;-83
2022/01/13 07:52:44;;;;;;;66.97;24.58;;;;;;;;;;4879003;29;20041;-77
2022/01/13 07:55:31;;;;;;;61.95;24.63;;;;;;;;;;4841351;29;20053;-77
2022/01/13 07:58:12;;;;;;;67.95;24.67;;;;;;;;;;4886084;29;20141;-78
2022/01/13 08:00:42;;;;;;;53.05;22.83;;;;;;;;;;4850978;29;20028;-77
2022/01/13 08:03:08;;;;;;;55.50;24.20;;;;;;;;;;4876830;29;20049;-78
2022/01/13 08:05:34;;;;;;;67.70;26.00;;;;;;;;;;4867392;29;20060;-77
2022/01/13 08:08:09;;;;;;;63.25;24.52;;;;;;;;;;4867057;29;20041;-78
2022/01/13 08:11:16;;;;;;;66.00;23.13;;;;;;;;;;4867182;29;20152;-79
2022/01/13 08:13:46;;;;;;;57.45;22.85;;;;;;;;;;4866336;29;20057;-78
2022/01/13 08:16:15;;;;;;;57.67;24.05;;;;;;;;;;4866688;29;20076;-78
2022/01/13 08:21:32;;;;;;;64.63;24.33;;;;;;;;;;4881817;29;20041;-78
2022/01/13 08:24:24;;;;;;;66.78;25.38;;;;;;;;;;4883219;29;20041;-80
2022/01/13 08:30:28;;;;;;;70.13;25.73;;;;;;;;;;4771263;29;20058;-81
2022/01/13 08:36:21;;;;;;;71.38;24.65;;;;;;;;;;4740887;30;20040;-80
2022/01/13 08:38:49;;;;;;;66.10;22.02;;;;;;;;;;4854261;29;20075;-79
2022/01/13 08:41:46;;;;;;;70.65;24.23;;;;;;;;;;4867357;29;20037;-79
2022/01/13 08:44:24;;;;;;;67.13;23.63;;;;;;;;;;4856408;29;20049;-80
2022/01/13 08:47:05;;;;;;;66.03;24.60;;;;;;;;;;4866400;29;20434;-80
2022/01/13 08:49:31;;;;;;;71.80;24.08;;;;;;;;;;4881351;29;20065;-75
2022/01/13 08:52:16;;;;;;;73.85;23.48;;;;;;;;;;4882905;29;20124;-79
2022/01/13 08:54:45;;;;;;;81.57;25.00;;;;;;;;;;4881391;29;20087;-81
2022/01/13 08:57:14;;;;;;;81.85;24.67;;;;;;;;;;4867071;29;20053;-80
2022/01/13 08:59:40;;;;;;;75.88;23.63;;;;;;;;;;4865821;29;20048;-78
2022/01/13 09:02:06;;;;;;;74.47;24.27;;;;;;;;;;4880621;29;20052;-80
2022/01/13 09:04:32;;;;;;;78.20;23.92;;;;;;;;;;4865466;29;20132;-78
2022/01/13 09:06:59;;;;;;;90.18;23.08;;;;;;;;;;4881359;29;20425;-79
2022/01/13 09:09:25;;;;;;;87.32;24.45;;;;;;;;;;4865773;29;20045;-79
2022/01/13 09:11:51;;;;;;;68.47;23.27;;;;;;;;;;4881876;29;20052;-78
2022/01/13 09:14:24;;;;;;;95.68;26.20;;;;;;;;;;4864791;29;20040;-78
2022/01/13 09:16:50;;;;;;;106.15;24.60;;;;;;;;;;4879601;29;20109;-80
2022/01/13 09:19:17;;;;;;;55.22;22.55;;;;;;;;;;4880763;29;20036;-79
2022/01/13 09:21:44;;;;;;;61.03;21.90;;;;;;;;;;4864730;29;20045;-79
2022/01/13 09:24:12;;;;;;;98.45;24.83;;;;;;;;;;4865771;29;20040;-79
2022/01/13 09:26:38;;;;;;;67.05;23.23;;;;;;;;;;4865098;29;20049;-80
2022/01/13 09:29:06;;;;;;;81.47;23.48;;;;;;;;;;4881516;29;20457;-81
2022/01/13 09:31:34;;;;;;;72.00;24.33;;;;;;;;;;4880474;29;20052;-80
2022/01/13 09:34:04;;;;;;;69.25;22.10;;;;;;;;;;4864904;29;20418;-78
2022/01/13 09:36:30;;;;;;;66.60;22.58;;;;;;;;;;4881545;29;20084;-77
2022/01/13 09:38:57;;;;;;;69.75;22.67;;;;;;;;;;4880955;29;20144;-78
2022/01/13 09:41:24;;;;;;;61.92;23.75;;;;;;;;;;4865567;29;20107;-79
2022/01/13 09:43:51;;;;;;;71.70;24.35;;;;;;;;;;4864363;29;20449;-78
2022/01/13 09:46:17;;;;;;;64.68;25.40;;;;;;;;;;4865070;29;20373;-79
2022/01/13 09:48:45;;;;;;;61.38;23.98;;;;;;;;;;4883926;29;20083;-78
2022/01/13 09:51:11;;;;;;;55.20;24.02;;;;;;;;;;4865145;29;20069;-79
2022/01/13 09:53:37;;;;;;;57.50;21.67;;;;;;;;;;4879772;29;20077;-77
2022/01/13 09:56:05;;;;;;;61.25;22.20;;;;;;;;;;4891282;29;20060;-81
2022/01/13 09:58:33;;;;;;;58.50;22.40;;;;;;;;;;4864396;29;20105;-81
2022/01/13 10:01:23;;;;;;;64.85;24.90;;;;;;;;;;4863740;29;20044;-79
2022/01/13 10:03:55;;;;;;;55.47;23.63;;;;;;;;;;4809736;29;20064;-84
2022/01/13 10:06:22;;;;;;;52.17;22.48;;;;;;;;;;4842690;29;20042;-82
2022/01/13 10:08:53;;;;;;;52.03;23.55;;;;;;;;;;4827352;29;20042;-83
2022/01/13 10:11:37;;;;;;;50.05;22.25;;;;;;;;;;4841575;29;20038;-77
2022/01/13 10:17:40;;;;;;;40.05;20.30;;;;;;;;;;4824277;29;20054;-83
2022/01/13 10:20:19;;;;;;;45.50;21.23;;;;;;;;;;4811674;29;20068;-81
2022/01/13 10:22:47;;;;;;;47.80;21.73;;;;;;;;;;4825859;29;20038;-82
2022/01/13 10:25:31;;;;;;;49.70;21.90;;;;;;;;;;4826738;29;20470;-79
2022/01/13 10:28:10;;;;;;;49.15;22.02;;;;;;;;;;4823445;29;20455;-78
2022/01/13 10:30:37;;;;;;;46.55;21.65;;;;;;;;;;4824941;29;20045;-78
2022/01/13 10:33:13;;;;;;;52.85;22.40;;;;;;;;;;4823031;29;20455;-77
2022/01/13 10:35:39;;;;;;;47.00;22.17;;;;;;;;;;4825024;29;20056;-81
2022/01/13 10:38:05;;;;;;;43.25;21.83;;;;;;;;;;4828097;29;20398;-78
2022/01/13 10:40:38;;;;;;;50.95;23.80;;;;;;;;;;4843993;29;20068;-77
2022/01/13 10:45:39;;;;;;;43.58;22.10;;;;;;;;;;4861566;29;20061;-77
2022/01/13 10:48:10;;;;;;;48.00;23.05;;;;;;;;;;4861896;29;20132;-77
2022/01/13 10:50:41;;;;;;;42.95;22.83;;;;;;;;;;4864578;29;20362;-77
2022/01/13 10:53:09;;;;;;;43.95;22.73;;;;;;;;;;4880116;29;20450;-77
2022/01/13 10:55:37;;;;;;;38.97;20.98;;;;;;;;;;4864045;29;20045;-77
2022/01/13 10:58:04;;;;;;;37.78;19.45;;;;;;;;;;4877724;29;20108;-78
2022/01/13 11:00:32;;;;;;;42.42;21.25;;;;;;;;;;4880177;29;20052;-78
2022/01/13 11:03:04;;;;;;;47.03;22.58;;;;;;;;;;4897258;29;20056;-76
2022/01/13 11:05:31;;;;;;;42.83;21.88;;;;;;;;;;4885131;29;20040;-76
2022/01/13 11:07:57;;;;;;;43.92;22.35;;;;;;;;;;4879948;29;20029;-77
2022/01/13 11:10:24;;;;;;;42.20;21.63;;;;;;;;;;4864101;29;20474;-78
2022/01/13 11:12:56;;;;;;;46.25;22.98;;;;;;;;;;4879157;29;20417;-75
2022/01/13 11:15:24;;;;;;;44.42;22.77;;;;;;;;;;4880367;29;20113;-75
2022/01/13 11:17:50;;;;;;;42.85;21.42;;;;;;;;;;4878876;29;20053;-75
2022/01/13 11:20:17;;;;;;;42.85;20.90;;;;;;;;;;4878831;29;20052;-78
2022/01/13 11:22:45;;;;;;;43.05;22.40;;;;;;;;;;4880264;29;20446;-78
2022/01/13 11:25:12;;;;;;;48.65;22.65;;;;;;;;;;4880258;29;20041;-77
2022/01/13 11:27:39;;;;;;;53.95;23.83;;;;;;;;;;4878639;29;20116;-77
2022/01/13 11:30:06;;;;;;;50.60;22.77;;;;;;;;;;4882438;29;20045;-81
2022/01/13 11:32:33;;;;;;;39.42;20.17;;;;;;;;;;4867592;29;20041;-76
2022/01/13 11:34:59;;;;;;;46.15;22.00;;;;;;;;;;4882326;29;20116;-77
2022/01/13 11:37:32;;;;;;;47.42;21.52;;;;;;;;;;4880903;29;20040;-78
2022/01/13 11:39:58;;;;;;;48.38;22.05;;;;;;;;;;4878816;29;20541;-78
2022/01/13 11:42:24;;;;;;;43.97;21.23;;;;;;;;;;4882551;29;20057;-79
2022/01/13 11:45:09;;;;;;;52.58;22.08;;;;;;;;;;4867709;29;20052;-77
2022/01/13 11:47:35;;;;;;;45.88;20.00;;;;;;;;;;4883835;29;20112;-81
2022/01/13 11:50:16;;;;;;;49.28;21.85;;;;;;;;;;4882333;29;20051;-78
2022/01/13 11:52:45;;;;;;;52.90;20.98;;;;;;;;;;4882917;29;20041;-79
2022/01/13 11:55:49;;;;;;;48.97;22.70;;;;;;;;;;4884438;29;20044;-79
2022/01/13 11:58:22;;;;;;;43.22;21.42;;;;;;;;;;4792899;29;20054;-78
2022/01/13 12:00:51;;;;;;;50.22;21.00;;;;;;;;;;4793311;29;20081;-78
2022/01/13 12:03:31;;;;;;;40.28;20.25;;;;;;;;;;4834096;29;20054;-77
2022/01/13 12:05:58;;;;;;;45.30;20.88;;;;;;;;;;4881990;29;20053;-78
2022/01/13 12:08:44;;;;;;;40.83;19.70;;;;;;;;;;4882144;29;20199;-78
2022/01/13 12:11:11;;;;;;;39.08;19.63;;;;;;;;;;4882001;29;20168;-78
2022/01/13 12:13:39;;;;;;;40.70;19.80;;;;;;;;;;4880526;29;20088;-78
2022/01/13 12:16:06;;;;;;;37.15;19.65;;;;;;;;;;4884141;29;20048;-81
2022/01/13 13:49:00;;;;;;;22.88;10.95;;;;;;;;;;4859151;29;20374;-79
2022/01/13 14:05:20;;;;;;;24.15;10.25;;;;;;;;;;4845697;29;20157;-82
2022/01/13 14:18:21;;;;;;;20.48;9.85;;;;;;;;;;4778317;29;20562;-82
2022/01/13 14:54:31;;;;;;;22.10;7.87;;;;;;;;;;5915969;23;1146038;-82
2022/01/13 14:56:58;;;;;;;22.63;8.52;;;;;;;;;;4897192;29;20098;-80
2022/01/13 14:59:26;;;;;;;25.70;8.85;;;;;;;;;;4865220;29;20036;-82
2022/01/13 15:01:52;;;;;;;20.45;8.05;;;;;;;;;;4868870;29;20445;-77
2022/01/13 15:04:18;;;;;;;24.13;8.85;;;;;;;;;;4866950;29;20055;-79
2022/01/13 15:06:45;;;;;;;18.13;8.38;;;;;;;;;;4882714;29;20116;-79
2022/01/13 15:09:11;;;;;;;23.15;8.00;;;;;;;;;;4882783;29;20048;-83
2022/01/13 15:11:37;;;;;;;21.05;8.10;;;;;;;;;;4866375;29;20040;-79
2022/01/13 15:14:03;;;;;;;19.48;7.32;;;;;;;;;;4867423;29;20152;-80
2022/01/13 15:16:29;;;;;;;18.77;7.43;;;;;;;;;;4883080;29;20059;-79
2022/01/13 15:19:02;;;;;;;23.23;8.35;;;;;;;;;;4867478;29;20112;-78
2022/01/13 15:21:29;;;;;;;21.98;7.57;;;;;;;;;;4866837;29;20045;-80
2022/01/13 15:23:55;;;;;;;22.77;8.23;;;;;;;;;;4866907;29;20041;-78
2022/01/13 15:26:22;;;;;;;19.98;8.20;;;;;;;;;;4866456;29;20055;-80
2022/01/13 15:28:49;;;;;;;19.15;7.53;;;;;;;;;;4853660;29;20053;-79
2022/01/13 15:31:15;;;;;;;16.20;7.63;;;;;;;;;;4864696;29;20096;-79
2022/01/13 15:33:41;;;;;;;21.63;8.13;;;;;;;;;;4866771;29;20364;-81
2022/01/13 15:36:08;;;;;;;20.23;7.00;;;;;;;;;;4880672;29;20044;-79
2022/01/13 15:38:35;;;;;;;17.23;7.68;;;;;;;;;;4863810;29;20465;-78
2022/01/13 15:41:02;;;;;;;21.98;8.18;;;;;;;;;;4863550;29;20045;-78
2022/01/13 15:43:28;;;;;;;24.77;8.30;;;;;;;;;;4863877;29;20411;-78
2022/01/13 15:45:55;;;;;;;21.50;8.20;;;;;;;;;;4867426;29;20040;-80
2022/01/13 15:48:21;;;;;;;20.05;8.00;;;;;;;;;;4881539;29;20372;-79
2022/01/13 15:50:47;;;;;;;22.02;7.97;;;;;;;;;;4867121;29;20052;-78
2022/01/13 15:53:13;;;;;;;28.33;8.13;;;;;;;;;;4882043;29;20072;-81
2022/01/13 15:55:39;;;;;;;26.20;7.53;;;;;;;;;;4881829;29;20053;-81
2022/01/13 15:58:06;;;;;;;23.65;7.25;;;;;;;;;;4866767;29;20039;-80
2022/01/13 16:00:32;;;;;;;19.55;7.53;;;;;;;;;;4881458;29;20037;-77
2022/01/13 16:02:58;;;;;;;20.40;8.25;;;;;;;;;;4866107;29;20036;-76
2022/01/13 16:05:24;;;;;;;26.30;8.02;;;;;;;;;;4881325;29;20051;-80
2022/01/13 16:07:51;;;;;;;24.40;7.53;;;;;;;;;;4882061;29;20036;-78
2022/01/13 16:10:17;;;;;;;23.50;8.18;;;;;;;;;;4881295;29;20042;-77
2022/01/13 16:12:44;;;;;;;20.83;7.60;;;;;;;;;;4875406;29;20053;-76
2022/01/13 16:15:12;;;;;;;19.73;7.20;;;;;;;;;;4901344;29;20051;-78
2022/01/13 16:17:38;;;;;;;23.13;7.20;;;;;;;;;;4885508;29;20051;-78
2022/01/13 16:20:05;;;;;;;18.83;6.90;;;;;;;;;;4868644;29;20044;-77
2022/01/13 16:22:31;;;;;;;22.15;7.40;;;;;;;;;;4883714;29;20445;-77
2022/01/13 16:24:57;;;;;;;20.05;7.30;;;;;;;;;;4870801;29;20048;-77
2022/01/13 16:27:23;;;;;;;21.15;6.45;;;;;;;;;;4870162;29;20346;-79
2022/01/13 16:30:00;;;;;;;19.50;7.05;;;;;;;;;;4884410;29;20049;-78
2022/01/13 16:32:30;;;;;;;24.73;7.25;;;;;;;;;;4872351;29;20048;-78
2022/01/13 16:34:57;;;;;;;18.92;7.32;;;;;;;;;;4884980;29;20053;-78
2022/01/13 16:37:24;;;;;;;19.60;7.03;;;;;;;;;;4885002;29;20047;-79
2022/01/13 16:39:50;;;;;;;18.15;6.38;;;;;;;;;;4885072;29;20052;-78
2022/01/13 16:42:16;;;;;;;21.05;5.65;;;;;;;;;;4867399;29;20077;-78
2022/01/13 16:44:43;;;;;;;24.52;6.50;;;;;;;;;;4884364;29;20473;-77
2022/01/13 16:47:11;;;;;;;18.23;6.32;;;;;;;;;;4901749;29;20146;-76
2022/01/13 16:49:41;;;;;;;23.35;6.20;;;;;;;;;;4899858;29;20048;-78
2022/01/13 16:52:08;;;;;;;15.43;6.03;;;;;;;;;;4901416;29;20477;-78
2022/01/13 16:54:35;;;;;;;24.15;6.43;;;;;;;;;;4883730;29;20048;-76
2022/01/13 16:57:01;;;;;;;24.63;6.22;;;;;;;;;;4884677;29;20461;-77
2022/01/13 16:59:27;;;;;;;21.50;6.93;;;;;;;;;;4899554;29;20099;-76
2022/01/13 17:01:53;;;;;;;20.52;7.70;;;;;;;;;;4899449;29;20051;-76
2022/01/13 17:04:23;;;;;;;16.88;6.15;;;;;;;;;;4895816;29;20140;-80
2022/01/13 17:06:49;;;;;;;20.58;6.90;;;;;;;;;;4884082;29;20064;-79
2022/01/13 17:09:21;;;;;;;17.65;5.88;;;;;;;;;;4869475;29;20350;-80
2022/01/13 17:11:50;;;;;;;24.40;5.90;;;;;;;;;;4867181;29;20036;-79
2022/01/13 17:14:19;;;;;;;20.13;6.65;;;;;;;;;;4883018;29;20079;-79
2022/01/13 17:16:49;;;;;;;18.58;6.68;;;;;;;;;;4854519;29;20116;-80
2022/01/13 17:19:15;;;;;;;18.13;6.50;;;;;;;;;;4850899;29;20037;-78
2022/01/13 17:21:42;;;;;;;22.73;6.07;;;;;;;;;;4850928;29;20048;-81
2022/01/13 17:24:16;;;;;;;24.73;6.53;;;;;;;;;;4851662;29;20083;-81
2022/01/13 17:26:58;;;;;;;18.13;6.18;;;;;;;;;;4867827;29;20376;-81
2022/01/13 17:29:33;;;;;;;18.27;5.88;;;;;;;;;;4870091;29;20053;-81